Mount Vernon, WA (98273)

6:34 PM PDT on August 31, 2015 (GMT -0700)
18th St / Fir | | Change Station
CLOSE
Current Station
Personal Weather Station
Location: Mount Vernon, WA
Elevation: 157 ft
Nearby Weather Stations

Elev 157 ft 48.43 °N, 122.32 °W | Updated 2 seconds ago

Rain
Rain
61.9 °F
Feels Like 61.9 °F
N
0.0
Wind Variable Wind from NE
Gusts 0.0 mph

Today
High -- | Low -- °F
--% Chance of Precip.
Yesterday
High -- | Low -- °F
Precip. -- in
6:25 AM 7:53 PM
Waning Gibbous, 92% visible
Pressure 29.87 in
Visibility 10.0 miles
Clouds Few 2700 ft
Scattered Clouds 3300 ft
Overcast 6500 ft
Dew Point 59 °F
Humidity 89%
Rainfall 0.00 in
Snow Depth Not available.
UV 1.0 out of 12
Pollen .50 out of 12
Air Quality Not available.
Flu Activity Not available.
METAR KBVS 010115Z AUTO 15008G13KT 10SM FEW027 SCT033 OVC065 17/15 A2987 RMK A01
Pressure 29.87 in
Visibility 10.0 miles
Clouds Few 2700 ft
Scattered Clouds 3300 ft
Overcast 6500 ft
Dew Point 59 °F
Humidity 89%
Rainfall 0.00 in
Snow Depth Not available.
UV 1.0 out of 12
Pollen .50 out of 12
Air Quality Not available.
Flu Activity Not available.
METAR KBVS 010115Z AUTO 15008G13KT 10SM FEW027 SCT033 OVC065 17/15 A2987 RMK A01

10-Day Weather Forecast

×

Almanac

Astronomy

Aug. 31, 2015 Rise Set
Actual Time
Civil Twilight
Nautical Twilight
Astronomical Twilight
Moon
Length of Visible Light
Length of Day
Tomorrow will be .
, % of the Moon is Illuminated

Today's Extremes

State Highs State Lows

Community

WunderPhotos

Upload Photos

1,851,424 photos uploaded!

WunderBlogs® & News

Nearby

Air Quality

  Air Quality AQ Index Pollutant
Not available.

Snow Depth

Station Depth Elevation

Earthquake Activity

City Distance Mag. Time & Date
Minimum magnitude displayed is 2.5.

Coastal Water Temperatures

Place Temperature

Stations

Nearby Weather Stations

Station Location Temp. Windchill Dew Point Humidity Wind Precip. Elev Updated Type